createdAt,value
2023-03-06T00:01:38.767Z,9.32
2023-03-06T00:04:41.368Z,7.25
2023-03-06T00:07:44.075Z,8.15
2023-03-06T00:10:46.781Z,6.85
2023-03-06T00:13:49.192Z,8.43
2023-03-06T00:16:56.005Z,9.05
2023-03-06T00:19:58.330Z,6.47
2023-03-06T00:23:01.304Z,6.03
2023-03-06T00:26:07.403Z,6.00
2023-03-06T00:29:10.270Z,5.55
2023-03-06T00:32:12.552Z,6.07
2023-03-06T00:35:18.182Z,5.75
2023-03-06T00:38:20.764Z,9.70
2023-03-06T00:41:25.044Z,7.65
2023-03-06T00:44:27.559Z,8.80
2023-03-06T00:47:30.219Z,6.57
2023-03-06T00:50:35.217Z,8.20
2023-03-06T00:53:38.002Z,8.63
2023-03-06T00:56:40.311Z,6.95
2023-03-06T00:59:43.291Z,7.50
2023-03-06T01:02:45.624Z,5.32
2023-03-06T01:05:48.737Z,7.47
2023-03-06T01:08:51.196Z,6.90
2023-03-06T01:11:53.973Z,6.80
2023-03-06T01:14:56.281Z,5.35
2023-03-06T01:17:59.026Z,9.10
2023-03-06T01:21:01.813Z,7.95
2023-03-06T01:24:04.646Z,6.12
2023-03-06T01:27:06.950Z,8.88
2023-03-06T01:30:10.509Z,6.37
2023-03-06T01:33:13.122Z,7.28
2023-03-06T01:36:16.002Z,6.82
2023-03-06T01:39:18.311Z,8.55
2023-03-06T01:42:22.116Z,9.00
2023-03-06T01:45:24.681Z,5.90
2023-03-06T01:48:27.441Z,9.40
2023-03-06T01:51:35.889Z,6.37
2023-03-06T01:54:49.580Z,6.12
2023-03-06T01:57:57.670Z,8.18
2023-03-06T02:01:00.350Z,6.55
2023-03-06T02:04:03.062Z,7.07
2023-03-06T02:07:06.245Z,6.93
2023-03-06T02:10:10.245Z,7.70
2023-03-06T02:13:12.758Z,8.60
2023-03-06T02:16:17.658Z,8.30
2023-03-06T02:19:56.793Z,7.25
2023-03-06T02:23:53.013Z,5.90
2023-03-06T02:26:57.386Z,6.62
2023-03-06T02:33:03.419Z,9.02
2023-03-06T02:36:10.220Z,5.85
2023-03-06T02:39:14.627Z,7.07
2023-03-06T02:42:22.416Z,7.37
2023-03-06T02:45:39.197Z,8.13
2023-03-06T02:48:41.705Z,7.00
2023-03-06T02:51:44.594Z,5.95
2023-03-06T02:54:47.445Z,6.97
2023-03-06T02:57:51.111Z,7.07
2023-03-06T03:00:54.013Z,7.25
2023-03-06T03:03:56.749Z,6.87
2023-03-06T03:06:59.618Z,6.50
2023-03-06T03:10:02.360Z,6.68
2023-03-06T03:13:05.207Z,6.37
2023-03-06T03:16:11.750Z,7.37
2023-03-06T03:19:14.706Z,9.38
2023-03-06T03:22:18.946Z,7.12
2023-03-06T03:25:22.682Z,6.97
2023-03-06T03:28:25.689Z,6.05
2023-03-06T03:31:28.387Z,7.47
2023-03-06T03:34:31.180Z,7.80
2023-03-06T03:37:34.762Z,5.07
2023-03-06T03:40:38.730Z,5.10
2023-03-06T03:43:42.237Z,7.37
2023-03-06T03:46:45.083Z,6.55
2023-03-06T03:49:47.961Z,6.75
2023-03-06T03:52:50.949Z,9.05
2023-03-06T03:55:53.478Z,6.87
2023-03-06T03:58:56.465Z,5.80
2023-03-06T04:01:59.490Z,9.02
2023-03-06T04:05:02.526Z,6.67
2023-03-06T04:08:05.559Z,8.25
2023-03-06T04:11:08.588Z,7.68
2023-03-06T04:14:11.057Z,8.55
2023-03-06T04:17:14.121Z,8.33
2023-03-06T04:20:16.996Z,8.57
2023-03-06T04:23:20.527Z,10.38
2023-03-06T04:26:23.089Z,12.75
2023-03-06T04:29:25.909Z,8.40
2023-03-06T04:32:28.450Z,9.45
2023-03-06T04:35:32.240Z,8.13
2023-03-06T04:38:34.895Z,6.57
2023-03-06T04:41:41.341Z,10.85
2023-03-06T04:44:43.928Z,8.93
2023-03-06T04:47:46.515Z,10.57
2023-03-06T04:50:48.911Z,7.93
2023-03-06T04:53:52.307Z,11.73
2023-03-06T04:56:54.828Z,9.82
2023-03-06T04:59:57.530Z,9.43
2023-03-06T05:03:01.338Z,10.05
2023-03-06T05:09:06.121Z,11.57
2023-03-06T05:12:08.762Z,8.93
2023-03-06T05:15:12.680Z,8.82
2023-03-06T05:18:15.316Z,10.88
2023-03-06T05:21:17.668Z,10.52
2023-03-06T05:24:20.629Z,9.65
2023-03-06T05:27:22.949Z,9.27
2023-03-06T05:30:26.047Z,11.80
2023-03-06T05:33:28.354Z,11.50
2023-03-06T05:36:30.966Z,11.70
2023-03-06T05:39:33.474Z,13.68
2023-03-06T05:42:36.083Z,8.43
2023-03-06T05:45:39.498Z,19.55
2023-03-06T05:48:42.147Z,14.23
2023-03-06T05:51:44.484Z,11.27
2023-03-06T05:54:50.910Z,12.77
2023-03-06T05:57:54.147Z,10.32
2023-03-06T06:00:57.308Z,10.75
2023-03-06T06:03:59.894Z,14.37
2023-03-06T06:07:02.287Z,11.10
2023-03-06T06:10:06.403Z,12.77
2023-03-06T06:13:09.125Z,12.13
2023-03-06T06:16:16.399Z,10.30
2023-03-06T06:19:20.219Z,10.18
2023-03-06T06:22:23.474Z,10.77
2023-03-06T06:25:25.816Z,12.23
2023-03-06T06:28:29.486Z,10.18
2023-03-06T06:31:32.097Z,20.37
2023-03-06T06:34:34.903Z,31.25
2023-03-06T06:37:37.829Z,14.18
2023-03-06T06:40:40.703Z,10.63
2023-03-06T06:43:43.082Z,19.85
2023-03-06T06:50:12.483Z,12.95
2023-03-06T06:53:15.074Z,12.23
2023-03-06T06:56:17.457Z,13.30
2023-03-06T06:59:20.600Z,14.07
2023-03-06T07:02:23.216Z,14.68
2023-03-06T07:05:26.294Z,18.17
2023-03-06T07:08:28.731Z,16.50
2023-03-06T07:11:31.838Z,13.38
2023-03-06T07:14:34.465Z,13.88
2023-03-06T07:17:37.104Z,11.12
2023-03-06T07:20:39.522Z,12.50
2023-03-06T07:23:42.148Z,12.02
2023-03-06T07:26:48.377Z,13.55
2023-03-06T07:29:53.716Z,15.07
2023-03-06T07:32:57.760Z,12.90
2023-03-06T07:36:00.479Z,13.20
2023-03-06T07:39:02.890Z,15.02
2023-03-06T07:42:07.591Z,16.12
2023-03-06T07:45:12.298Z,16.60
2023-03-06T07:48:15.031Z,12.05
2023-03-06T07:51:20.231Z,13.02
2023-03-06T07:54:22.883Z,13.25
2023-03-06T07:57:25.357Z,19.33
2023-03-06T08:00:28.122Z,14.00
2023-03-06T08:03:30.812Z,13.60
2023-03-06T08:06:33.445Z,13.40
2023-03-06T08:09:36.222Z,16.70
2023-03-06T08:12:38.558Z,17.40
2023-03-06T08:15:41.344Z,14.82
2023-03-06T08:18:45.835Z,17.00
2023-03-06T08:21:49.148Z,14.35
2023-03-06T08:24:55.228Z,14.68
2023-03-06T08:27:57.897Z,13.68
2023-03-06T08:31:27.488Z,12.90
2023-03-06T08:34:30.275Z,14.20
2023-03-06T08:37:32.609Z,12.27
2023-03-06T08:40:35.540Z,16.23
2023-03-06T08:43:37.954Z,14.80
2023-03-06T08:46:41.014Z,20.27
2023-03-06T08:49:43.411Z,12.37
2023-03-06T08:52:47.343Z,15.65
2023-03-06T08:55:49.724Z,17.00
2023-03-06T08:58:53.464Z,13.48
2023-03-06T09:01:56.140Z,16.45
2023-03-06T09:05:01.293Z,18.37
2023-03-06T09:08:08.829Z,15.50
2023-03-06T09:11:41.032Z,18.40
2023-03-06T09:14:50.728Z,12.75
2023-03-06T09:18:02.410Z,15.15
2023-03-06T09:21:17.304Z,16.17
2023-03-06T09:24:22.384Z,16.12
2023-03-06T09:27:25.307Z,14.15
2023-03-06T09:30:28.454Z,12.95
2023-03-06T09:33:32.758Z,16.40
2023-03-06T09:36:49.306Z,15.93
2023-03-06T09:40:00.232Z,14.55
2023-03-06T09:43:05.188Z,18.08
2023-03-06T09:46:20.142Z,16.12
2023-03-06T09:49:40.905Z,26.17
2023-03-06T09:53:10.451Z,13.55
2023-03-06T09:56:20.445Z,10.88
2023-03-06T09:59:25.429Z,12.23
2023-03-06T10:02:37.202Z,14.63
2023-03-06T10:05:44.714Z,13.52
2023-03-06T10:08:58.218Z,14.38
2023-03-06T10:12:08.933Z,12.80
2023-03-06T10:15:21.964Z,16.02
2023-03-06T10:18:24.733Z,20.30
2023-03-06T10:21:56.372Z,16.23
2023-03-06T10:25:10.903Z,13.20
2023-03-06T10:31:25.188Z,18.15
2023-03-06T10:34:42.737Z,14.68
2023-03-06T10:37:51.938Z,14.10
2023-03-06T10:41:12.854Z,18.90
2023-03-06T10:44:15.371Z,16.58
2023-03-06T10:47:31.128Z,14.35
2023-03-06T10:50:34.662Z,16.20
2023-03-06T10:54:08.553Z,16.83
2023-03-06T10:57:23.967Z,15.15
2023-03-06T11:00:36.068Z,17.62
2023-03-06T11:03:48.617Z,16.45
2023-03-06T11:07:17.741Z,19.45
2023-03-06T11:10:20.620Z,15.95
2023-03-06T11:17:32.080Z,20.80
2023-03-06T11:20:51.916Z,16.60
2023-03-06T11:24:02.330Z,16.33
2023-03-06T11:27:25.494Z,16.45
2023-03-06T11:30:37.608Z,21.87
2023-03-06T11:33:55.863Z,23.30
2023-03-06T11:37:01.353Z,18.05
2023-03-06T11:40:42.342Z,14.85
2023-03-06T11:44:13.498Z,16.70
2023-03-06T11:47:15.990Z,16.48
2023-03-06T11:50:34.706Z,15.93
2023-03-06T11:53:42.215Z,17.02
2023-03-06T11:56:59.675Z,16.23
2023-03-06T12:00:29.746Z,18.67
2023-03-06T12:03:57.933Z,16.52
2023-03-06T12:07:07.846Z,18.35
2023-03-06T12:10:27.824Z,15.45
2023-03-06T12:14:08.592Z,16.48
2023-03-06T12:17:31.891Z,17.12
2023-03-06T12:21:03.703Z,15.20
2023-03-06T12:24:27.026Z,15.95
2023-03-06T12:27:48.640Z,17.52
2023-03-06T12:31:18.752Z,17.10
2023-03-06T12:34:28.507Z,17.95
2023-03-06T12:38:02.160Z,16.98
2023-03-06T12:41:22.891Z,17.67
2023-03-06T12:44:49.902Z,15.70
2023-03-06T12:47:56.564Z,23.15
2023-03-06T12:50:59.829Z,19.10
2023-03-06T12:54:03.247Z,22.25
2023-03-06T12:57:08.589Z,21.27
2023-03-06T13:00:32.530Z,18.08
2023-03-06T13:04:13.836Z,18.50
2023-03-06T13:07:21.146Z,15.60
2023-03-06T13:10:26.979Z,18.95
2023-03-06T13:13:34.137Z,14.45
2023-03-06T13:16:38.650Z,21.23
2023-03-06T13:19:41.291Z,15.95
2023-03-06T13:22:46.209Z,19.77
2023-03-06T13:25:50.801Z,20.25
2023-03-06T13:28:55.511Z,22.60
2023-03-06T13:32:00.940Z,16.60
2023-03-06T13:35:29.677Z,18.73
2023-03-06T13:38:45.016Z,16.90
2023-03-06T13:41:58.438Z,16.92
2023-03-06T13:45:30.275Z,20.20
2023-03-06T13:48:45.318Z,20.20
2023-03-06T13:51:54.410Z,18.25
2023-03-06T13:55:24.806Z,18.73
2023-03-06T13:58:58.686Z,20.67
2023-03-06T14:02:22.538Z,21.85
2023-03-06T14:05:34.745Z,16.27
2023-03-06T14:08:40.991Z,17.77
2023-03-06T14:11:50.691Z,19.45
2023-03-06T14:14:57.252Z,22.65
2023-03-06T14:18:07.697Z,18.33
2023-03-06T14:21:15.957Z,22.25
2023-03-06T14:24:26.860Z,23.80
2023-03-06T14:27:49.452Z,21.90
2023-03-06T14:30:53.964Z,17.40
2023-03-06T14:34:01.729Z,18.30
2023-03-06T14:37:07.708Z,20.65
2023-03-06T14:40:11.515Z,19.75
2023-03-06T14:43:24.639Z,22.13
2023-03-06T14:46:27.006Z,24.05
2023-03-06T14:49:29.740Z,20.92
2023-03-06T14:52:32.853Z,22.33
2023-03-06T14:55:36.126Z,19.65
2023-03-06T14:58:54.967Z,18.60
2023-03-06T15:02:04.285Z,19.70
2023-03-06T15:05:19.619Z,19.83
2023-03-06T15:08:30.389Z,19.77
2023-03-06T15:12:04.912Z,22.42
2023-03-06T15:18:29.723Z,20.35
2023-03-06T15:21:38.073Z,19.92
2023-03-06T15:24:40.574Z,18.95
2023-03-06T15:27:53.379Z,21.10
2023-03-06T15:31:20.895Z,17.52
2023-03-06T15:34:23.924Z,37.25
2023-03-06T15:37:28.787Z,25.30
2023-03-06T15:40:31.968Z,21.02
2023-03-06T15:43:40.240Z,21.62
2023-03-06T15:46:42.857Z,17.77
2023-03-06T15:49:45.618Z,22.37
2023-03-06T15:52:49.691Z,19.85
2023-03-06T15:55:52.748Z,17.60
2023-03-06T15:58:57.899Z,21.87
2023-03-06T16:02:04.339Z,20.48
2023-03-06T16:05:15.706Z,20.48
2023-03-06T16:08:18.168Z,23.45
2023-03-06T16:11:32.486Z,27.47
2023-03-06T16:14:37.937Z,18.40
2023-03-06T16:17:40.604Z,18.50
2023-03-06T16:20:43.199Z,19.92
2023-03-06T16:23:47.254Z,37.33
2023-03-06T16:26:51.857Z,23.00
2023-03-06T16:29:55.607Z,15.52
2023-03-06T16:32:58.784Z,20.37
2023-03-06T16:36:02.844Z,17.48
2023-03-06T16:39:05.661Z,18.33
2023-03-06T16:42:09.328Z,21.20
2023-03-06T16:45:11.900Z,16.62
2023-03-06T16:48:16.779Z,20.50
2023-03-06T16:51:24.904Z,19.05
2023-03-06T16:54:27.624Z,18.73
2023-03-06T16:57:36.688Z,19.27
2023-03-06T17:00:40.601Z,21.62
2023-03-06T17:03:43.076Z,17.75
2023-03-06T17:06:46.326Z,19.90
2023-03-06T17:09:48.643Z,20.73
2023-03-06T17:12:51.238Z,18.15
2023-03-06T17:15:56.914Z,18.55
2023-03-06T17:19:00.956Z,16.70
2023-03-06T17:22:05.841Z,19.05
2023-03-06T17:25:09.352Z,17.05
2023-03-06T17:28:11.997Z,18.80
2023-03-06T17:31:20.863Z,21.83
2023-03-06T17:34:24.630Z,22.83
2023-03-06T17:37:27.551Z,22.83
2023-03-06T17:40:29.986Z,26.98
2023-03-06T17:43:33.693Z,20.20
2023-03-06T17:46:36.072Z,21.37
2023-03-06T17:49:41.056Z,20.33
2023-03-06T17:52:43.528Z,24.08
2023-03-06T17:55:46.168Z,19.00
2023-03-06T17:58:48.507Z,17.50
2023-03-06T18:01:53.123Z,20.35
2023-03-06T18:04:57.593Z,19.67
2023-03-06T18:08:01.234Z,19.70
2023-03-06T18:14:07.415Z,19.17
2023-03-06T18:17:10.062Z,20.15
2023-03-06T18:20:13.158Z,22.13
2023-03-06T18:23:15.824Z,23.77
2023-03-06T18:26:19.515Z,20.92
2023-03-06T18:32:24.875Z,20.37
2023-03-06T18:35:27.718Z,20.83
2023-03-06T18:38:30.078Z,36.67
2023-03-06T18:41:32.896Z,39.22
2023-03-06T18:44:35.183Z,25.23
2023-03-06T18:47:37.835Z,19.35
2023-03-06T18:50:40.119Z,18.85
2023-03-06T18:53:43.693Z,24.92
2023-03-06T18:56:46.097Z,20.70
2023-03-06T18:59:50.086Z,21.62
2023-03-06T19:02:52.475Z,22.60
2023-03-06T19:05:55.493Z,23.62
2023-03-06T19:09:02.222Z,20.35
2023-03-06T19:12:05.799Z,18.92
2023-03-06T19:15:08.813Z,20.67
2023-03-06T19:18:16.822Z,21.30
2023-03-06T19:21:22.079Z,21.08
2023-03-06T19:24:24.839Z,21.20
2023-03-06T19:27:27.246Z,21.30
2023-03-06T19:30:29.975Z,21.90
2023-03-06T19:33:32.292Z,19.50
2023-03-06T19:36:34.954Z,24.95
2023-03-06T19:39:37.309Z,22.33
2023-03-06T19:42:40.008Z,21.85
2023-03-06T19:45:44.028Z,21.12
2023-03-06T19:48:46.998Z,22.55
2023-03-06T19:51:49.440Z,23.05
2023-03-06T19:54:52.889Z,24.02
2023-03-06T19:57:55.253Z,23.43
2023-03-06T20:01:06.911Z,22.52
2023-03-06T20:04:09.777Z,26.60
2023-03-06T20:07:12.605Z,22.48
2023-03-06T20:10:15.393Z,23.73
2023-03-06T20:13:17.791Z,22.62
2023-03-06T20:16:20.743Z,25.85
2023-03-06T20:19:23.094Z,24.20
2023-03-06T20:22:26.058Z,25.52
2023-03-06T20:25:28.815Z,26.95
2023-03-06T20:28:32.455Z,31.70
2023-03-06T20:31:35.450Z,26.70
2023-03-06T20:34:39.442Z,22.87
2023-03-06T20:37:41.850Z,23.05
2023-03-06T20:40:44.816Z,28.08
2023-03-06T20:43:47.774Z,24.98
2023-03-06T20:46:52.023Z,25.73
2023-03-06T20:52:58.454Z,25.45
2023-03-06T20:59:03.798Z,22.75
2023-03-06T21:02:06.567Z,24.08
2023-03-06T21:05:09.597Z,25.57
2023-03-06T21:08:12.012Z,31.25
2023-03-06T21:11:16.156Z,23.45
2023-03-06T21:14:18.536Z,44.55
2023-03-06T21:17:21.260Z,31.08
2023-03-06T21:20:24.123Z,27.48
2023-03-06T21:23:26.751Z,25.33
2023-03-06T21:26:33.732Z,26.98
2023-03-06T21:29:36.532Z,25.25
2023-03-06T21:32:39.127Z,23.90
2023-03-06T21:35:43.839Z,25.77
2023-03-06T21:38:47.772Z,24.42
2023-03-06T21:41:50.448Z,25.70
2023-03-06T21:44:52.809Z,30.08
2023-03-06T21:47:59.101Z,26.27
2023-03-06T21:51:10.694Z,25.67
2023-03-06T21:54:13.328Z,28.52
2023-03-06T21:57:15.883Z,27.23
2023-03-06T22:00:19.597Z,23.23
2023-03-06T22:03:22.341Z,28.92
2023-03-06T22:06:26.982Z,24.83
2023-03-06T22:09:29.751Z,24.98
2023-03-06T22:12:34.412Z,25.48
2023-03-06T22:15:37.056Z,29.23
2023-03-06T22:18:39.490Z,27.90
2023-03-06T22:21:42.128Z,25.25
2023-03-06T22:24:44.473Z,30.15
2023-03-06T22:27:47.101Z,26.50
2023-03-06T22:30:49.479Z,30.05
2023-03-06T22:33:53.324Z,25.17
2023-03-06T22:36:55.810Z,26.20
2023-03-06T22:39:58.397Z,26.45
2023-03-06T22:43:00.910Z,29.60
2023-03-06T22:46:06.450Z,28.98
2023-03-06T22:49:10.757Z,30.75
2023-03-06T22:52:15.197Z,26.00
2023-03-06T22:55:18.706Z,26.60
2023-03-06T22:58:21.624Z,27.15
2023-03-06T23:01:26.653Z,28.95
2023-03-06T23:04:29.917Z,29.20
2023-03-06T23:07:32.331Z,29.58
2023-03-06T23:10:39.545Z,28.10
2023-03-06T23:14:02.985Z,25.80
2023-03-06T23:17:24.169Z,33.75
2023-03-06T23:20:45.049Z,29.70
2023-03-06T23:24:06.979Z,29.90
2023-03-06T23:27:09.611Z,27.73
2023-03-06T23:30:12.569Z,28.70
2023-03-06T23:33:15.210Z,29.48
2023-03-06T23:36:18.589Z,28.40
2023-03-06T23:39:21.193Z,32.00
2023-03-06T23:42:23.779Z,27.67
2023-03-06T23:45:27.377Z,30.42
2023-03-06T23:48:29.954Z,30.08
2023-03-06T23:51:32.598Z,29.42
2023-03-06T23:54:35.824Z,31.98
2023-03-06T23:57:38.430Z,31.17
